首页
METAR-TAF:

METAR-TAF

机场 :

科羅拉多大峽谷, 亞利桑那州, 美国

纬度: 35-56-46N, 经度: 112-09-17W, 海拔: 2014米

当前天气观测

该预报发布于13分钟前的06:54 UTC
静风
温度 -3°C
湿度 80%
气压 1017 hPa
能見度: 16.1公里
天空无云

METAR: KGCN 030654Z AUTO 00000KT 10SM CLR M03/M06 A3002 RMK AO2 SLP134 T10331061 401501044

时间: 00:07 (07:07 UTC)

预报

该预报发布于1小时和47分钟前的05:20 UTC
预报有效从03日的 06点(UTC)到 04日的 06点(UTC)
风速5节,风向多变
能見度: 10公里
天空无云
从 03日的 1900点(UTC)
风速10节,风向西南,有时为18节阵风
能見度: 10公里
少量云层高于20000英尺
从 04日的 0100点(UTC)
风速5节,风向西南
能見度: 10公里
散云层高于15000英尺

TAF: KGCN 030520Z 0306/0406 VRB05KT P6SM SKC FM031900 22010G18KT P6SM FEW200 FM040100 23005KT P6SM SCT150

超过4000个机场的气象观测和天气预报(METAR&TAF报告)。

可查询的气象台以黄色和红色小点在地图上表示。

将鼠标移到小点上方,可查看气象台名称。

然后点击查看天气观测和预报。

如需切换地图:点击带黑十字的绿色按钮放大地图;点击带横线的绿色按钮缩小地图;或者点击绿色箭头查看邻近地区的地图。


METAR-TAF: